sensor_id;sensor_type;location;lat;lon;timestamp;temperature;humidity
28548;DHT22;68292;49.600;8.746;2024-02-04T00:01:08;15.80;58.60
28548;DHT22;68292;49.600;8.746;2024-02-04T00:03:37;15.80;58.60
28548;DHT22;68292;49.600;8.746;2024-02-04T00:06:06;15.80;58.60
28548;DHT22;68292;49.600;8.746;2024-02-04T00:08:35;15.80;58.70
28548;DHT22;68292;49.600;8.746;2024-02-04T00:11:05;15.80;58.70
28548;DHT22;68292;49.600;8.746;2024-02-04T00:13:35;15.80;58.80
28548;DHT22;68292;49.600;8.746;2024-02-04T00:16:05;15.80;58.70
28548;DHT22;68292;49.600;8.746;2024-02-04T00:18:33;15.80;58.80
28548;DHT22;68292;49.600;8.746;2024-02-04T00:21:02;15.80;58.80
28548;DHT22;68292;49.600;8.746;2024-02-04T00:23:31;15.80;58.80
28548;DHT22;68292;49.600;8.746;2024-02-04T00:26:00;15.80;58.80
28548;DHT22;68292;49.600;8.746;2024-02-04T00:28:31;15.80;58.80
28548;DHT22;68292;49.600;8.746;2024-02-04T00:31:00;15.90;58.90
28548;DHT22;68292;49.600;8.746;2024-02-04T00:33:29;15.90;58.80
28548;DHT22;68292;49.600;8.746;2024-02-04T00:35:58;15.90;58.80
28548;DHT22;68292;49.600;8.746;2024-02-04T00:38:26;15.90;58.80
28548;DHT22;68292;49.600;8.746;2024-02-04T00:40:55;15.90;58.80
28548;DHT22;68292;49.600;8.746;2024-02-04T00:43:24;15.90;58.80
28548;DHT22;68292;49.600;8.746;2024-02-04T00:45:54;15.90;58.80
28548;DHT22;68292;49.600;8.746;2024-02-04T00:48:24;15.90;58.80
28548;DHT22;68292;49.600;8.746;2024-02-04T00:50:53;15.90;58.80
28548;DHT22;68292;49.600;8.746;2024-02-04T00:53:21;15.90;58.80
28548;DHT22;68292;49.600;8.746;2024-02-04T00:55:50;15.90;58.70
28548;DHT22;68292;49.600;8.746;2024-02-04T00:58:19;15.90;58.70
28548;DHT22;68292;49.600;8.746;2024-02-04T01:00:47;15.90;58.80
28548;DHT22;68292;49.600;8.746;2024-02-04T01:03:18;15.90;58.80
28548;DHT22;68292;49.600;8.746;2024-02-04T01:05:47;15.90;58.80
28548;DHT22;68292;49.600;8.746;2024-02-04T01:08:16;15.90;58.70
28548;DHT22;68292;49.600;8.746;2024-02-04T01:10:45;15.90;58.70
28548;DHT22;68292;49.600;8.746;2024-02-04T01:13:14;15.90;58.70
28548;DHT22;68292;49.600;8.746;2024-02-04T01:15:42;15.90;58.70
28548;DHT22;68292;49.600;8.746;2024-02-04T01:18:11;15.90;58.70
28548;DHT22;68292;49.600;8.746;2024-02-04T01:20:41;15.90;58.70
28548;DHT22;68292;49.600;8.746;2024-02-04T01:23:10;15.90;58.70
28548;DHT22;68292;49.600;8.746;2024-02-04T01:25:40;15.90;58.70
28548;DHT22;68292;49.600;8.746;2024-02-04T01:28:10;15.90;58.70
28548;DHT22;68292;49.600;8.746;2024-02-04T01:30:38;15.90;58.70
28548;DHT22;68292;49.600;8.746;2024-02-04T01:33:07;15.80;58.70
28548;DHT22;68292;49.600;8.746;2024-02-04T01:35:37;15.80;58.70
28548;DHT22;68292;49.600;8.746;2024-02-04T01:38:07;15.80;58.80
28548;DHT22;68292;49.600;8.746;2024-02-04T01:40:35;15.80;58.80
28548;DHT22;68292;49.600;8.746;2024-02-04T01:43:05;15.80;58.80
28548;DHT22;68292;49.600;8.746;2024-02-04T01:45:34;15.80;58.80
28548;DHT22;68292;49.600;8.746;2024-02-04T01:48:03;15.80;58.80
28548;DHT22;68292;49.600;8.746;2024-02-04T01:50:32;15.80;58.80
28548;DHT22;68292;49.600;8.746;2024-02-04T01:53:01;15.80;58.80
28548;DHT22;68292;49.600;8.746;2024-02-04T01:55:31;15.80;58.90
28548;DHT22;68292;49.600;8.746;2024-02-04T01:58:01;15.80;58.90
28548;DHT22;68292;49.600;8.746;2024-02-04T02:00:31;15.80;58.80
28548;DHT22;68292;49.600;8.746;2024-02-04T02:03:00;15.80;58.90
28548;DHT22;68292;49.600;8.746;2024-02-04T02:05:30;15.80;58.90
28548;DHT22;68292;49.600;8.746;2024-02-04T02:07:59;15.80;58.80
28548;DHT22;68292;49.600;8.746;2024-02-04T02:10:28;15.80;58.80
28548;DHT22;68292;49.600;8.746;2024-02-04T02:13:00;15.80;58.90
28548;DHT22;68292;49.600;8.746;2024-02-04T02:15:36;15.80;58.90
28548;DHT22;68292;49.600;8.746;2024-02-04T02:18:10;15.80;58.90
28548;DHT22;68292;49.600;8.746;2024-02-04T02:20:56;15.80;58.90
28548;DHT22;68292;49.600;8.746;2024-02-04T02:23:36;15.80;59.00
28548;DHT22;68292;49.600;8.746;2024-02-04T02:26:13;15.80;58.90
28548;DHT22;68292;49.600;8.746;2024-02-04T02:28:42;15.80;58.90
28548;DHT22;68292;49.600;8.746;2024-02-04T02:31:10;15.80;58.90
28548;DHT22;68292;49.600;8.746;2024-02-04T02:33:39;15.80;58.90
28548;DHT22;68292;49.600;8.746;2024-02-04T02:36:13;15.80;58.90
28548;DHT22;68292;49.600;8.746;2024-02-04T02:38:52;15.80;59.10
28548;DHT22;68292;49.600;8.746;2024-02-04T02:41:30;15.80;59.10
28548;DHT22;68292;49.600;8.746;2024-02-04T02:44:00;15.80;59.00
28548;DHT22;68292;49.600;8.746;2024-02-04T02:46:29;15.80;59.00
28548;DHT22;68292;49.600;8.746;2024-02-04T02:48:58;15.80;59.10
28548;DHT22;68292;49.600;8.746;2024-02-04T02:51:27;15.80;59.10
28548;DHT22;68292;49.600;8.746;2024-02-04T02:53:56;15.80;59.10
28548;DHT22;68292;49.600;8.746;2024-02-04T02:56:24;15.80;59.10
28548;DHT22;68292;49.600;8.746;2024-02-04T02:58:55;15.80;59.10
28548;DHT22;68292;49.600;8.746;2024-02-04T03:01:24;15.80;59.20
28548;DHT22;68292;49.600;8.746;2024-02-04T03:03:53;15.80;59.20
28548;DHT22;68292;49.600;8.746;2024-02-04T03:06:22;15.80;59.10
28548;DHT22;68292;49.600;8.746;2024-02-04T03:08:51;15.80;59.20
28548;DHT22;68292;49.600;8.746;2024-02-04T03:11:20;15.80;59.20
28548;DHT22;68292;49.600;8.746;2024-02-04T03:13:49;15.70;59.20
28548;DHT22;68292;49.600;8.746;2024-02-04T03:16:19;15.80;59.30
28548;DHT22;68292;49.600;8.746;2024-02-04T03:18:48;15.70;59.30
28548;DHT22;68292;49.600;8.746;2024-02-04T03:21:17;15.80;59.30
28548;DHT22;68292;49.600;8.746;2024-02-04T03:23:46;15.80;59.40
28548;DHT22;68292;49.600;8.746;2024-02-04T03:26:17;15.70;59.40
28548;DHT22;68292;49.600;8.746;2024-02-04T03:28:48;15.80;59.50
28548;DHT22;68292;49.600;8.746;2024-02-04T03:31:21;15.80;59.40
28548;DHT22;68292;49.600;8.746;2024-02-04T03:33:50;15.80;59.50
28548;DHT22;68292;49.600;8.746;2024-02-04T03:36:22;15.70;59.30
28548;DHT22;68292;49.600;8.746;2024-02-04T03:38:52;15.70;59.40
28548;DHT22;68292;49.600;8.746;2024-02-04T03:41:21;15.80;60.00
28548;DHT22;68292;49.600;8.746;2024-02-04T03:43:50;15.80;59.40
28548;DHT22;68292;49.600;8.746;2024-02-04T03:46:20;15.80;59.40
28548;DHT22;68292;49.600;8.746;2024-02-04T03:48:49;15.70;59.40
28548;DHT22;68292;49.600;8.746;2024-02-04T03:51:19;15.70;59.40
28548;DHT22;68292;49.600;8.746;2024-02-04T03:53:50;15.70;59.50
28548;DHT22;68292;49.600;8.746;2024-02-04T03:56:19;15.80;59.50
28548;DHT22;68292;49.600;8.746;2024-02-04T03:58:48;15.70;59.40
28548;DHT22;68292;49.600;8.746;2024-02-04T04:01:17;15.70;59.40
28548;DHT22;68292;49.600;8.746;2024-02-04T04:03:47;15.80;59.40
28548;DHT22;68292;49.600;8.746;2024-02-04T04:06:16;15.80;59.40
28548;DHT22;68292;49.600;8.746;2024-02-04T04:08:45;15.80;59.40
28548;DHT22;68292;49.600;8.746;2024-02-04T04:11:14;15.80;59.40
28548;DHT22;68292;49.600;8.746;2024-02-04T04:13:43;15.70;59.40
28548;DHT22;68292;49.600;8.746;2024-02-04T04:16:11;15.80;59.40
28548;DHT22;68292;49.600;8.746;2024-02-04T04:18:40;15.70;59.40
28548;DHT22;68292;49.600;8.746;2024-02-04T04:21:10;15.70;59.40
28548;DHT22;68292;49.600;8.746;2024-02-04T04:23:39;15.70;59.40
28548;DHT22;68292;49.600;8.746;2024-02-04T04:26:07;15.70;59.40
28548;DHT22;68292;49.600;8.746;2024-02-04T04:28:36;15.70;59.50
28548;DHT22;68292;49.600;8.746;2024-02-04T04:31:05;15.70;59.50
28548;DHT22;68292;49.600;8.746;2024-02-04T04:33:34;15.70;59.50
28548;DHT22;68292;49.600;8.746;2024-02-04T04:36:05;15.70;59.50
28548;DHT22;68292;49.600;8.746;2024-02-04T04:38:35;15.70;59.50
28548;DHT22;68292;49.600;8.746;2024-02-04T04:41:04;15.70;59.60
28548;DHT22;68292;49.600;8.746;2024-02-04T04:43:37;15.70;59.60
28548;DHT22;68292;49.600;8.746;2024-02-04T04:46:06;15.70;59.60
28548;DHT22;68292;49.600;8.746;2024-02-04T04:48:33;15.70;59.50
28548;DHT22;68292;49.600;8.746;2024-02-04T04:51:02;15.70;59.50
28548;DHT22;68292;49.600;8.746;2024-02-04T04:53:31;15.70;59.50
28548;DHT22;68292;49.600;8.746;2024-02-04T04:56:02;15.70;59.50
28548;DHT22;68292;49.600;8.746;2024-02-04T04:58:31;15.70;59.60
28548;DHT22;68292;49.600;8.746;2024-02-04T05:01:00;15.70;59.60
28548;DHT22;68292;49.600;8.746;2024-02-04T05:03:29;15.70;59.60
28548;DHT22;68292;49.600;8.746;2024-02-04T05:05:58;15.70;59.60
28548;DHT22;68292;49.600;8.746;2024-02-04T05:08:28;15.70;59.70
28548;DHT22;68292;49.600;8.746;2024-02-04T05:10:56;15.70;59.70
28548;DHT22;68292;49.600;8.746;2024-02-04T05:13:26;15.70;59.70
28548;DHT22;68292;49.600;8.746;2024-02-04T05:15:55;15.70;59.70
28548;DHT22;68292;49.600;8.746;2024-02-04T05:18:24;15.70;59.70
28548;DHT22;68292;49.600;8.746;2024-02-04T05:20:54;15.70;59.70
28548;DHT22;68292;49.600;8.746;2024-02-04T05:23:23;15.70;59.70
28548;DHT22;68292;49.600;8.746;2024-02-04T05:25:52;15.70;59.70
28548;DHT22;68292;49.600;8.746;2024-02-04T05:28:20;15.70;60.50
28548;DHT22;68292;49.600;8.746;2024-02-04T05:30:50;15.70;59.70
28548;DHT22;68292;49.600;8.746;2024-02-04T05:33:19;15.70;59.80
28548;DHT22;68292;49.600;8.746;2024-02-04T05:35:47;15.70;59.70
28548;DHT22;68292;49.600;8.746;2024-02-04T05:38:17;15.70;59.80
28548;DHT22;68292;49.600;8.746;2024-02-04T05:40:45;15.70;59.80
28548;DHT22;68292;49.600;8.746;2024-02-04T05:43:14;15.70;59.80
28548;DHT22;68292;49.600;8.746;2024-02-04T05:45:43;15.70;60.50
28548;DHT22;68292;49.600;8.746;2024-02-04T05:48:13;15.70;59.80
28548;DHT22;68292;49.600;8.746;2024-02-04T05:50:42;15.70;59.90
28548;DHT22;68292;49.600;8.746;2024-02-04T05:53:11;15.70;59.80
28548;DHT22;68292;49.600;8.746;2024-02-04T05:55:39;15.70;59.80
28548;DHT22;68292;49.600;8.746;2024-02-04T05:58:08;15.70;60.60
28548;DHT22;68292;49.600;8.746;2024-02-04T06:00:37;15.70;59.80
28548;DHT22;68292;49.600;8.746;2024-02-04T06:03:06;15.70;59.80
28548;DHT22;68292;49.600;8.746;2024-02-04T06:05:37;15.70;59.80
28548;DHT22;68292;49.600;8.746;2024-02-04T06:08:06;15.70;59.80
28548;DHT22;68292;49.600;8.746;2024-02-04T06:10:34;15.70;59.90
28548;DHT22;68292;49.600;8.746;2024-02-04T06:13:03;15.70;59.80
28548;DHT22;68292;49.600;8.746;2024-02-04T06:15:32;15.70;59.80
28548;DHT22;68292;49.600;8.746;2024-02-04T06:18:03;15.70;59.80
28548;DHT22;68292;49.600;8.746;2024-02-04T06:20:32;15.70;59.80
28548;DHT22;68292;49.600;8.746;2024-02-04T06:23:02;15.70;59.80
28548;DHT22;68292;49.600;8.746;2024-02-04T06:25:31;15.70;59.90
28548;DHT22;68292;49.600;8.746;2024-02-04T06:27:59;15.70;59.80
28548;DHT22;68292;49.600;8.746;2024-02-04T06:30:28;15.70;59.80
28548;DHT22;68292;49.600;8.746;2024-02-04T06:32:57;15.70;59.90
28548;DHT22;68292;49.600;8.746;2024-02-04T06:35:26;15.70;59.80
28548;DHT22;68292;49.600;8.746;2024-02-04T06:37:54;15.70;59.90
28548;DHT22;68292;49.600;8.746;2024-02-04T06:40:28;15.70;59.90
28548;DHT22;68292;49.600;8.746;2024-02-04T06:42:57;15.70;59.90
28548;DHT22;68292;49.600;8.746;2024-02-04T06:45:26;15.70;59.80
28548;DHT22;68292;49.600;8.746;2024-02-04T06:47:54;15.70;59.90
28548;DHT22;68292;49.600;8.746;2024-02-04T06:50:23;15.70;59.90
28548;DHT22;68292;49.600;8.746;2024-02-04T06:52:52;15.70;59.90
28548;DHT22;68292;49.600;8.746;2024-02-04T06:55:20;15.70;59.80
28548;DHT22;68292;49.600;8.746;2024-02-04T06:57:50;15.70;59.80
28548;DHT22;68292;49.600;8.746;2024-02-04T07:00:19;15.70;59.80
28548;DHT22;68292;49.600;8.746;2024-02-04T07:02:49;15.70;59.80
28548;DHT22;68292;49.600;8.746;2024-02-04T07:05:17;15.70;59.80
28548;DHT22;68292;49.600;8.746;2024-02-04T07:07:49;15.70;59.80
28548;DHT22;68292;49.600;8.746;2024-02-04T07:10:18;15.70;59.80
28548;DHT22;68292;49.600;8.746;2024-02-04T07:12:47;15.70;59.80
28548;DHT22;68292;49.600;8.746;2024-02-04T07:15:17;15.70;59.80
28548;DHT22;68292;49.600;8.746;2024-02-04T07:17:46;15.70;59.80
28548;DHT22;68292;49.600;8.746;2024-02-04T07:20:14;15.70;59.70
28548;DHT22;68292;49.600;8.746;2024-02-04T07:22:43;15.70;59.70
28548;DHT22;68292;49.600;8.746;2024-02-04T07:25:12;15.70;59.70
28548;DHT22;68292;49.600;8.746;2024-02-04T07:27:41;15.70;59.70
28548;DHT22;68292;49.600;8.746;2024-02-04T07:30:10;15.70;59.70
28548;DHT22;68292;49.600;8.746;2024-02-04T07:32:40;15.70;59.70
28548;DHT22;68292;49.600;8.746;2024-02-04T07:35:09;15.60;59.60
28548;DHT22;68292;49.600;8.746;2024-02-04T07:37:38;15.60;59.60
28548;DHT22;68292;49.600;8.746;2024-02-04T07:40:08;15.60;59.60
28548;DHT22;68292;49.600;8.746;2024-02-04T07:42:37;15.60;59.60
28548;DHT22;68292;49.600;8.746;2024-02-04T07:45:06;15.60;59.60
28548;DHT22;68292;49.600;8.746;2024-02-04T07:47:37;15.60;59.60
28548;DHT22;68292;49.600;8.746;2024-02-04T07:50:08;15.60;59.60
28548;DHT22;68292;49.600;8.746;2024-02-04T07:52:37;15.60;59.60
28548;DHT22;68292;49.600;8.746;2024-02-04T07:55:10;15.60;59.60
28548;DHT22;68292;49.600;8.746;2024-02-04T07:57:39;15.60;59.60
28548;DHT22;68292;49.600;8.746;2024-02-04T08:00:08;15.50;59.60
28548;DHT22;68292;49.600;8.746;2024-02-04T08:02:38;15.60;59.70
28548;DHT22;68292;49.600;8.746;2024-02-04T08:05:08;15.50;59.60
28548;DHT22;68292;49.600;8.746;2024-02-04T08:07:37;15.50;59.70
28548;DHT22;68292;49.600;8.746;2024-02-04T08:10:07;15.50;59.70
28548;DHT22;68292;49.600;8.746;2024-02-04T08:12:36;15.50;59.80
28548;DHT22;68292;49.600;8.746;2024-02-04T08:15:06;15.50;59.80
28548;DHT22;68292;49.600;8.746;2024-02-04T08:17:35;15.50;59.80
28548;DHT22;68292;49.600;8.746;2024-02-04T08:20:05;15.50;59.80
28548;DHT22;68292;49.600;8.746;2024-02-04T08:22:36;15.50;59.80
28548;DHT22;68292;49.600;8.746;2024-02-04T08:25:05;15.50;59.80
28548;DHT22;68292;49.600;8.746;2024-02-04T08:27:34;15.50;59.70
28548;DHT22;68292;49.600;8.746;2024-02-04T08:30:03;15.50;59.70
28548;DHT22;68292;49.600;8.746;2024-02-04T08:32:33;15.50;59.70
28548;DHT22;68292;49.600;8.746;2024-02-04T08:35:02;15.50;59.80
28548;DHT22;68292;49.600;8.746;2024-02-04T08:37:32;15.50;59.70
28548;DHT22;68292;49.600;8.746;2024-02-04T08:40:06;15.50;59.70
28548;DHT22;68292;49.600;8.746;2024-02-04T08:42:37;15.50;59.80
28548;DHT22;68292;49.600;8.746;2024-02-04T08:45:06;15.50;59.70
28548;DHT22;68292;49.600;8.746;2024-02-04T08:47:36;15.60;59.70
28548;DHT22;68292;49.600;8.746;2024-02-04T08:50:05;15.50;59.70
28548;DHT22;68292;49.600;8.746;2024-02-04T08:52:35;15.50;59.70
28548;DHT22;68292;49.600;8.746;2024-02-04T08:55:13;15.50;59.70
28548;DHT22;68292;49.600;8.746;2024-02-04T08:57:42;15.50;59.80
28548;DHT22;68292;49.600;8.746;2024-02-04T09:00:12;15.50;59.70
28548;DHT22;68292;49.600;8.746;2024-02-04T09:02:43;15.60;59.80
28548;DHT22;68292;49.600;8.746;2024-02-04T09:05:13;15.60;59.70
28548;DHT22;68292;49.600;8.746;2024-02-04T09:07:43;15.60;59.70
28548;DHT22;68292;49.600;8.746;2024-02-04T09:10:13;15.60;59.80
28548;DHT22;68292;49.600;8.746;2024-02-04T09:12:43;15.50;59.80
28548;DHT22;68292;49.600;8.746;2024-02-04T09:15:12;15.50;59.80
28548;DHT22;68292;49.600;8.746;2024-02-04T09:17:41;15.60;59.80
28548;DHT22;68292;49.600;8.746;2024-02-04T09:20:11;15.50;59.80
28548;DHT22;68292;49.600;8.746;2024-02-04T09:22:40;15.60;59.90
28548;DHT22;68292;49.600;8.746;2024-02-04T09:25:09;15.60;59.80
28548;DHT22;68292;49.600;8.746;2024-02-04T09:27:47;15.60;59.80
28548;DHT22;68292;49.600;8.746;2024-02-04T09:30:16;15.60;59.70
28548;DHT22;68292;49.600;8.746;2024-02-04T09:32:45;15.60;59.60
28548;DHT22;68292;49.600;8.746;2024-02-04T09:35:14;15.60;59.60
28548;DHT22;68292;49.600;8.746;2024-02-04T09:37:43;15.60;59.60
28548;DHT22;68292;49.600;8.746;2024-02-04T09:40:14;15.60;59.60
28548;DHT22;68292;49.600;8.746;2024-02-04T09:42:44;15.60;59.60
28548;DHT22;68292;49.600;8.746;2024-02-04T09:45:14;15.60;59.60
28548;DHT22;68292;49.600;8.746;2024-02-04T09:47:45;15.60;59.70
28548;DHT22;68292;49.600;8.746;2024-02-04T09:50:14;15.60;59.70
28548;DHT22;68292;49.600;8.746;2024-02-04T09:52:49;15.60;59.70
28548;DHT22;68292;49.600;8.746;2024-02-04T09:55:21;15.60;59.70
28548;DHT22;68292;49.600;8.746;2024-02-04T09:57:51;15.60;59.70
28548;DHT22;68292;49.600;8.746;2024-02-04T10:00:20;15.60;59.70
28548;DHT22;68292;49.600;8.746;2024-02-04T10:02:49;15.50;59.70
28548;DHT22;68292;49.600;8.746;2024-02-04T10:05:18;15.60;59.70
28548;DHT22;68292;49.600;8.746;2024-02-04T10:07:47;15.60;59.70
28548;DHT22;68292;49.600;8.746;2024-02-04T10:10:16;15.60;59.80
28548;DHT22;68292;49.600;8.746;2024-02-04T10:12:47;15.60;59.80
28548;DHT22;68292;49.600;8.746;2024-02-04T10:15:16;15.60;59.80
28548;DHT22;68292;49.600;8.746;2024-02-04T10:17:45;15.60;59.80
28548;DHT22;68292;49.600;8.746;2024-02-04T10:20:15;15.60;59.80
28548;DHT22;68292;49.600;8.746;2024-02-04T10:22:46;15.60;59.80
28548;DHT22;68292;49.600;8.746;2024-02-04T10:25:20;15.60;59.80
28548;DHT22;68292;49.600;8.746;2024-02-04T10:27:51;15.60;59.80
28548;DHT22;68292;49.600;8.746;2024-02-04T10:30:21;15.60;59.90
28548;DHT22;68292;49.600;8.746;2024-02-04T10:32:50;15.60;59.90
28548;DHT22;68292;49.600;8.746;2024-02-04T10:35:20;15.60;59.90
28548;DHT22;68292;49.600;8.746;2024-02-04T10:37:50;15.60;59.90
28548;DHT22;68292;49.600;8.746;2024-02-04T10:40:19;15.70;60.00
28548;DHT22;68292;49.600;8.746;2024-02-04T10:42:50;15.70;59.90
28548;DHT22;68292;49.600;8.746;2024-02-04T10:45:22;15.70;60.00
28548;DHT22;68292;49.600;8.746;2024-02-04T10:47:55;15.70;59.90
28548;DHT22;68292;49.600;8.746;2024-02-04T10:50:25;15.70;60.00
28548;DHT22;68292;49.600;8.746;2024-02-04T10:52:56;15.70;59.80
28548;DHT22;68292;49.600;8.746;2024-02-04T10:55:30;15.80;59.90
28548;DHT22;68292;49.600;8.746;2024-02-04T10:58:00;15.80;60.00
28548;DHT22;68292;49.600;8.746;2024-02-04T11:00:30;15.80;59.90
28548;DHT22;68292;49.600;8.746;2024-02-04T11:02:59;15.70;59.90
28548;DHT22;68292;49.600;8.746;2024-02-04T11:05:29;15.80;60.70
28548;DHT22;68292;49.600;8.746;2024-02-04T11:07:58;15.80;59.90
28548;DHT22;68292;49.600;8.746;2024-02-04T11:10:29;15.80;59.90
28548;DHT22;68292;49.600;8.746;2024-02-04T11:13:00;15.80;59.90
28548;DHT22;68292;49.600;8.746;2024-02-04T11:15:35;15.80;60.00
28548;DHT22;68292;49.600;8.746;2024-02-04T11:18:30;15.80;60.10
28548;DHT22;68292;49.600;8.746;2024-02-04T11:24:46;15.90;60.70
28548;DHT22;68292;49.600;8.746;2024-02-04T11:27:22;15.90;60.50
28548;DHT22;68292;49.600;8.746;2024-02-04T11:29:54;15.90;60.10
28548;DHT22;68292;49.600;8.746;2024-02-04T11:32:24;15.90;60.20
28548;DHT22;68292;49.600;8.746;2024-02-04T11:34:54;15.90;60.20
28548;DHT22;68292;49.600;8.746;2024-02-04T11:37:28;15.90;60.30
28548;DHT22;68292;49.600;8.746;2024-02-04T11:39:57;15.80;60.20
28548;DHT22;68292;49.600;8.746;2024-02-04T11:42:31;15.80;60.30
28548;DHT22;68292;49.600;8.746;2024-02-04T11:45:08;15.90;60.50
28548;DHT22;68292;49.600;8.746;2024-02-04T11:47:38;15.90;60.50
28548;DHT22;68292;49.600;8.746;2024-02-04T11:50:08;15.90;60.40
28548;DHT22;68292;49.600;8.746;2024-02-04T11:52:39;15.90;60.40
28548;DHT22;68292;49.600;8.746;2024-02-04T11:55:13;15.90;60.50
28548;DHT22;68292;49.600;8.746;2024-02-04T11:57:43;15.90;60.50
28548;DHT22;68292;49.600;8.746;2024-02-04T12:00:15;15.90;60.40
28548;DHT22;68292;49.600;8.746;2024-02-04T12:02:44;15.90;60.30
28548;DHT22;68292;49.600;8.746;2024-02-04T12:05:13;15.90;60.20
28548;DHT22;68292;49.600;8.746;2024-02-04T12:07:42;15.90;60.20
28548;DHT22;68292;49.600;8.746;2024-02-04T12:10:12;15.90;60.20
28548;DHT22;68292;49.600;8.746;2024-02-04T12:12:41;15.90;60.20
28548;DHT22;68292;49.600;8.746;2024-02-04T12:15:10;16.00;60.20
28548;DHT22;68292;49.600;8.746;2024-02-04T12:17:40;15.90;60.20
28548;DHT22;68292;49.600;8.746;2024-02-04T12:20:10;15.90;60.20
28548;DHT22;68292;49.600;8.746;2024-02-04T12:22:40;16.00;60.20
28548;DHT22;68292;49.600;8.746;2024-02-04T12:25:09;16.00;60.20
28548;DHT22;68292;49.600;8.746;2024-02-04T12:27:39;16.00;60.20
28548;DHT22;68292;49.600;8.746;2024-02-04T12:30:09;16.00;60.20
28548;DHT22;68292;49.600;8.746;2024-02-04T12:32:38;16.00;60.20
28548;DHT22;68292;49.600;8.746;2024-02-04T12:35:13;16.00;60.10
28548;DHT22;68292;49.600;8.746;2024-02-04T12:37:50;16.00;60.20
28548;DHT22;68292;49.600;8.746;2024-02-04T12:40:22;16.00;60.20
28548;DHT22;68292;49.600;8.746;2024-02-04T12:42:55;16.00;60.10
28548;DHT22;68292;49.600;8.746;2024-02-04T12:45:30;16.00;60.00
28548;DHT22;68292;49.600;8.746;2024-02-04T12:47:59;16.00;60.00
28548;DHT22;68292;49.600;8.746;2024-02-04T12:50:29;16.10;60.00
28548;DHT22;68292;49.600;8.746;2024-02-04T12:53:04;16.10;60.10
28548;DHT22;68292;49.600;8.746;2024-02-04T12:55:34;16.00;60.00
28548;DHT22;68292;49.600;8.746;2024-02-04T12:58:05;16.10;60.10
28548;DHT22;68292;49.600;8.746;2024-02-04T13:00:36;16.10;60.10
28548;DHT22;68292;49.600;8.746;2024-02-04T13:03:06;16.10;60.00
28548;DHT22;68292;49.600;8.746;2024-02-04T13:05:37;16.10;60.00
28548;DHT22;68292;49.600;8.746;2024-02-04T13:08:06;16.10;60.00
28548;DHT22;68292;49.600;8.746;2024-02-04T13:10:36;16.10;60.00
28548;DHT22;68292;49.600;8.746;2024-02-04T13:13:07;16.10;60.00
28548;DHT22;68292;49.600;8.746;2024-02-04T13:15:39;16.10;60.00
28548;DHT22;68292;49.600;8.746;2024-02-04T13:18:09;16.10;60.00
28548;DHT22;68292;49.600;8.746;2024-02-04T13:20:40;16.10;60.00
28548;DHT22;68292;49.600;8.746;2024-02-04T13:23:09;16.10;60.10
28548;DHT22;68292;49.600;8.746;2024-02-04T13:25:37;16.10;60.00
28548;DHT22;68292;49.600;8.746;2024-02-04T13:28:06;16.10;60.10
28548;DHT22;68292;49.600;8.746;2024-02-04T13:30:35;16.10;60.10
28548;DHT22;68292;49.600;8.746;2024-02-04T13:33:04;16.10;60.00
28548;DHT22;68292;49.600;8.746;2024-02-04T13:35:34;16.10;60.10
28548;DHT22;68292;49.600;8.746;2024-02-04T13:38:04;16.10;60.10
28548;DHT22;68292;49.600;8.746;2024-02-04T13:40:35;16.10;60.00
28548;DHT22;68292;49.600;8.746;2024-02-04T13:43:04;16.20;60.10
28548;DHT22;68292;49.600;8.746;2024-02-04T13:45:33;16.10;60.00
28548;DHT22;68292;49.600;8.746;2024-02-04T13:48:02;16.20;60.10
28548;DHT22;68292;49.600;8.746;2024-02-04T13:50:31;16.10;60.00
28548;DHT22;68292;49.600;8.746;2024-02-04T13:53:00;16.20;60.00
28548;DHT22;68292;49.600;8.746;2024-02-04T13:55:30;16.20;60.00
28548;DHT22;68292;49.600;8.746;2024-02-04T13:57:59;16.20;60.00
28548;DHT22;68292;49.600;8.746;2024-02-04T14:00:28;16.20;60.00
28548;DHT22;68292;49.600;8.746;2024-02-04T14:02:57;16.10;60.00
28548;DHT22;68292;49.600;8.746;2024-02-04T14:05:27;16.10;60.00
28548;DHT22;68292;49.600;8.746;2024-02-04T14:07:58;16.10;60.00
28548;DHT22;68292;49.600;8.746;2024-02-04T14:10:26;16.20;60.00
28548;DHT22;68292;49.600;8.746;2024-02-04T14:12:56;16.20;60.00
28548;DHT22;68292;49.600;8.746;2024-02-04T14:15:25;16.20;60.00
28548;DHT22;68292;49.600;8.746;2024-02-04T14:17:54;16.20;60.00
28548;DHT22;68292;49.600;8.746;2024-02-04T14:20:24;16.20;60.00
28548;DHT22;68292;49.600;8.746;2024-02-04T14:22:54;16.20;60.00
28548;DHT22;68292;49.600;8.746;2024-02-04T14:25:23;16.20;60.00
28548;DHT22;68292;49.600;8.746;2024-02-04T14:27:58;16.20;60.00
28548;DHT22;68292;49.600;8.746;2024-02-04T14:30:27;16.20;60.00
28548;DHT22;68292;49.600;8.746;2024-02-04T14:32:55;16.20;60.00
28548;DHT22;68292;49.600;8.746;2024-02-04T14:35:25;16.20;60.00
28548;DHT22;68292;49.600;8.746;2024-02-04T14:37:54;16.20;60.10
28548;DHT22;68292;49.600;8.746;2024-02-04T14:40:22;16.20;60.10
28548;DHT22;68292;49.600;8.746;2024-02-04T14:42:51;16.20;60.10
28548;DHT22;68292;49.600;8.746;2024-02-04T14:45:21;16.20;60.10
28548;DHT22;68292;49.600;8.746;2024-02-04T14:47:50;16.20;60.20
28548;DHT22;68292;49.600;8.746;2024-02-04T14:50:19;16.20;60.10
28548;DHT22;68292;49.600;8.746;2024-02-04T14:52:48;16.20;60.10
28548;DHT22;68292;49.600;8.746;2024-02-04T14:55:16;16.10;60.00
28548;DHT22;68292;49.600;8.746;2024-02-04T14:57:48;16.20;60.10
28548;DHT22;68292;49.600;8.746;2024-02-04T15:00:17;16.20;60.10
28548;DHT22;68292;49.600;8.746;2024-02-04T15:02:49;16.20;60.10
28548;DHT22;68292;49.600;8.746;2024-02-04T15:05:18;16.20;60.10
28548;DHT22;68292;49.600;8.746;2024-02-04T15:07:49;16.20;60.10
28548;DHT22;68292;49.600;8.746;2024-02-04T15:10:18;16.20;60.10
28548;DHT22;68292;49.600;8.746;2024-02-04T15:12:47;16.20;60.10
28548;DHT22;68292;49.600;8.746;2024-02-04T15:15:20;16.20;60.10
28548;DHT22;68292;49.600;8.746;2024-02-04T15:17:52;16.20;60.00
28548;DHT22;68292;49.600;8.746;2024-02-04T15:20:21;16.20;60.10
28548;DHT22;68292;49.600;8.746;2024-02-04T15:22:51;16.20;60.00
28548;DHT22;68292;49.600;8.746;2024-02-04T15:25:21;16.20;60.10
28548;DHT22;68292;49.600;8.746;2024-02-04T15:27:52;16.20;60.10
28548;DHT22;68292;49.600;8.746;2024-02-04T15:30:21;16.20;60.20
28548;DHT22;68292;49.600;8.746;2024-02-04T15:32:52;16.20;60.20
28548;DHT22;68292;49.600;8.746;2024-02-04T15:35:22;16.20;60.20
28548;DHT22;68292;49.600;8.746;2024-02-04T15:37:52;16.20;60.10
28548;DHT22;68292;49.600;8.746;2024-02-04T15:40:20;16.20;60.10
28548;DHT22;68292;49.600;8.746;2024-02-04T15:42:49;16.20;60.20
28548;DHT22;68292;49.600;8.746;2024-02-04T15:45:18;16.20;60.10
28548;DHT22;68292;49.600;8.746;2024-02-04T15:47:50;16.20;60.10
28548;DHT22;68292;49.600;8.746;2024-02-04T15:50:21;16.20;60.10